createdAt,value
2018-04-10T00:02:00.415Z,12.22
2018-04-10T00:04:29.107Z,12.09
2018-04-10T00:06:57.821Z,12.01
2018-04-10T00:09:26.417Z,11.99
2018-04-10T00:11:55.268Z,12.01
2018-04-10T00:14:24.045Z,12.09
2018-04-10T00:16:53.371Z,12.08
2018-04-10T00:19:22.818Z,12.08
2018-04-10T00:21:52.002Z,12.14
2018-04-10T00:24:20.705Z,12.14
2018-04-10T00:26:49.412Z,12.15
2018-04-10T00:29:18.142Z,12.17
2018-04-10T00:31:46.943Z,12.17
2018-04-10T00:34:15.631Z,12.18
2018-04-10T00:36:44.237Z,12.21
2018-04-10T00:39:12.898Z,12.22
2018-04-10T00:41:41.681Z,12.19
2018-04-10T00:44:10.404Z,12.26
2018-04-10T00:46:39.191Z,12.17
2018-04-10T00:49:08.194Z,12.17
2018-04-10T00:51:37.665Z,12.10
2018-04-10T00:54:06.551Z,12.03
2018-04-10T00:56:35.210Z,11.95
2018-04-10T00:59:04.628Z,11.94
2018-04-10T01:01:34.177Z,11.97
2018-04-10T01:04:02.809Z,11.99
2018-04-10T01:06:31.461Z,11.93
2018-04-10T01:09:00.225Z,11.94
2018-04-10T01:11:28.968Z,11.95
2018-04-10T01:13:57.574Z,11.92
2018-04-10T01:16:26.351Z,11.90
2018-04-10T01:18:54.971Z,11.91
2018-04-10T01:21:24.580Z,11.95
2018-04-10T01:23:53.808Z,11.92
2018-04-10T01:26:22.370Z,11.87
2018-04-10T01:28:51.906Z,11.99
2018-04-10T01:31:20.510Z,12.00
2018-04-10T01:33:49.738Z,12.09
2018-04-10T01:36:18.466Z,12.10
2018-04-10T01:38:46.999Z,12.05
2018-04-10T01:41:15.708Z,12.05
2018-04-10T01:43:44.364Z,12.00
2018-04-10T01:46:13.138Z,12.00
2018-04-10T01:48:41.785Z,12.01
2018-04-10T01:51:10.809Z,11.98
2018-04-10T01:53:39.994Z,12.03
2018-04-10T01:56:09.931Z,11.99
2018-04-10T01:58:39.394Z,11.92
2018-04-10T02:01:08.094Z,11.90
2018-04-10T02:03:36.747Z,11.84
2018-04-10T02:06:05.519Z,11.80
2018-04-10T02:08:34.329Z,11.85
2018-04-10T02:11:03.125Z,11.83
2018-04-10T02:13:31.738Z,11.82
2018-04-10T02:16:00.441Z,11.89
2018-04-10T02:18:29.271Z,11.87
2018-04-10T02:20:58.030Z,11.87
2018-04-10T02:23:27.962Z,11.96
2018-04-10T02:25:58.137Z,12.05
2018-04-10T02:28:26.960Z,12.16
2018-04-10T02:30:55.709Z,12.14
2018-04-10T02:33:25.279Z,12.11
2018-04-10T02:35:53.807Z,12.13
2018-04-10T02:38:22.571Z,12.14
2018-04-10T02:40:51.310Z,12.13
2018-04-10T02:43:20.086Z,12.18
2018-04-10T02:45:49.538Z,12.13
2018-04-10T02:48:18.089Z,12.16
2018-04-10T02:50:47.273Z,12.01
2018-04-10T02:53:16.651Z,11.93
2018-04-10T02:55:47.148Z,11.85
2018-04-10T02:58:15.851Z,11.81
2018-04-10T03:00:44.633Z,11.72
2018-04-10T03:03:13.221Z,11.62
2018-04-10T03:05:42.790Z,11.67
2018-04-10T03:08:11.490Z,11.58
2018-04-10T03:10:40.052Z,11.57
2018-04-10T03:13:08.815Z,11.65
2018-04-10T03:15:37.831Z,11.77
2018-04-10T03:18:06.524Z,11.85
2018-04-10T03:20:35.432Z,11.86
2018-04-10T03:23:05.013Z,11.86
2018-04-10T03:25:33.931Z,12.03
2018-04-10T03:28:02.500Z,11.96
2018-04-10T03:30:31.197Z,11.91
2018-04-10T03:32:59.911Z,11.90
2018-04-10T03:35:28.718Z,11.88
2018-04-10T03:37:57.439Z,11.93
2018-04-10T03:40:26.109Z,11.98
2018-04-10T03:42:54.643Z,11.97
2018-04-10T03:45:23.387Z,11.95
2018-04-10T03:47:52.282Z,12.03
2018-04-10T03:50:21.572Z,12.03
2018-04-10T03:52:51.104Z,12.05
2018-04-10T03:55:20.575Z,12.08
2018-04-10T03:57:49.942Z,12.08
2018-04-10T04:00:18.776Z,12.06
2018-04-10T04:02:47.538Z,11.98
2018-04-10T04:05:16.256Z,11.83
2018-04-10T04:07:44.973Z,11.74
2018-04-10T04:10:13.592Z,11.67
2018-04-10T04:12:42.395Z,11.62
2018-04-10T04:15:11.213Z,11.60
2018-04-10T04:17:42.481Z,11.58
2018-04-10T04:20:30.079Z,11.64
2018-04-10T04:22:58.916Z,11.90
2018-04-10T04:25:27.734Z,12.01
2018-04-10T04:27:56.457Z,11.95
2018-04-10T04:30:25.125Z,11.94
2018-04-10T04:32:53.942Z,11.94
2018-04-10T04:35:22.755Z,11.97
2018-04-10T04:37:52.242Z,11.87
2018-04-10T04:40:22.100Z,11.77
2018-04-10T04:42:50.786Z,11.77
2018-04-10T04:45:20.454Z,11.77
2018-04-10T04:47:49.194Z,11.71
2018-04-10T04:50:17.987Z,11.62
2018-04-10T04:52:47.448Z,11.44
2018-04-10T04:55:16.963Z,11.21
2018-04-10T04:57:45.834Z,11.07
2018-04-10T05:00:14.824Z,11.03
2018-04-10T05:02:44.121Z,11.06
2018-04-10T05:05:13.940Z,11.00
2018-04-10T05:07:43.118Z,10.98
2018-04-10T05:10:12.105Z,10.96
2018-04-10T05:12:41.658Z,10.95
2018-04-10T05:15:10.363Z,10.91
2018-04-10T05:17:39.124Z,10.95
2018-04-10T05:20:07.884Z,10.93
2018-04-10T05:22:36.695Z,10.96
2018-04-10T05:25:05.485Z,11.01
2018-04-10T05:27:34.732Z,11.09
2018-04-10T05:30:03.809Z,11.20
2018-04-10T05:32:32.762Z,11.23
2018-04-10T05:35:03.158Z,11.32
2018-04-10T05:37:33.376Z,11.44
2018-04-10T05:40:02.223Z,11.52
2018-04-10T05:42:31.831Z,11.61
2018-04-10T05:45:01.403Z,11.59
2018-04-10T05:47:30.119Z,11.63
2018-04-10T05:49:58.871Z,11.68
2018-04-10T05:52:27.645Z,11.69
2018-04-10T05:54:57.422Z,11.75
2018-04-10T05:57:26.888Z,11.80
2018-04-10T05:59:55.606Z,11.91
2018-04-10T06:02:24.505Z,12.02
2018-04-10T06:04:54.077Z,12.11
2018-04-10T06:07:23.836Z,12.20
2018-04-10T06:09:53.283Z,12.24
2018-04-10T06:12:21.928Z,12.44
2018-04-10T06:14:50.817Z,12.94
2018-04-10T06:17:19.581Z,13.47
2018-04-10T06:19:49.246Z,14.09
2018-04-10T06:22:18.160Z,15.06
2018-04-10T06:24:47.896Z,14.96
2018-04-10T06:27:16.713Z,15.06
2018-04-10T06:29:46.565Z,14.58
2018-04-10T06:32:16.655Z,15.33
2018-04-10T06:34:47.737Z,15.12
2018-04-10T06:37:16.554Z,15.46
2018-04-10T06:39:45.467Z,15.45
2018-04-10T06:42:14.324Z,15.74
2018-04-10T06:44:43.199Z,15.26
2018-04-10T06:47:12.807Z,14.82
2018-04-10T06:49:41.619Z,16.27
2018-04-10T06:52:10.321Z,17.13
2018-04-10T06:54:39.040Z,17.20
2018-04-10T06:57:07.955Z,17.19
2018-04-10T06:59:36.756Z,17.05
2018-04-10T07:02:06.194Z,17.36
2018-04-10T07:04:36.191Z,15.99
2018-04-10T07:07:05.138Z,15.91
2018-04-10T07:09:34.039Z,16.51
2018-04-10T07:12:02.859Z,17.60
2018-04-10T07:14:31.539Z,17.88
2018-04-10T07:17:00.257Z,17.40
2018-04-10T07:19:28.781Z,17.09
2018-04-10T07:21:57.975Z,17.45
2018-04-10T07:24:26.914Z,17.17
2018-04-10T07:26:55.926Z,17.24
2018-04-10T07:29:24.893Z,17.98
2018-04-10T07:31:54.845Z,17.27
2018-04-10T07:34:24.062Z,16.75
2018-04-10T07:36:53.742Z,16.45
2018-04-10T07:39:22.838Z,17.35
2018-04-10T07:41:51.785Z,17.31
2018-04-10T07:44:20.652Z,17.38
2018-04-10T07:46:49.577Z,18.19
2018-04-10T07:49:18.257Z,18.41
2018-04-10T07:51:47.093Z,18.72
2018-04-10T07:54:16.100Z,18.72
2018-04-10T07:56:44.811Z,19.49
2018-04-10T07:59:13.332Z,19.77
2018-04-10T08:01:42.186Z,20.32
2018-04-10T08:04:11.809Z,18.91
2018-04-10T08:06:41.432Z,20.30
2018-04-10T08:09:10.299Z,21.32
2018-04-10T08:11:39.001Z,20.83
2018-04-10T08:14:07.743Z,21.78
2018-04-10T08:16:36.464Z,22.26
2018-04-10T08:19:05.338Z,22.05
2018-04-10T08:21:34.144Z,22.00
2018-04-10T08:24:04.096Z,21.82
2018-04-10T08:26:33.798Z,18.64
2018-04-10T08:29:02.552Z,20.44
2018-04-10T08:31:31.320Z,21.75
2018-04-10T08:34:00.636Z,22.87
2018-04-10T08:36:30.277Z,21.86
2018-04-10T08:38:59.210Z,20.59
2018-04-10T08:41:27.841Z,19.70
2018-04-10T08:43:56.805Z,20.10
2018-04-10T08:46:25.818Z,19.36
2018-04-10T08:48:54.643Z,20.93
2018-04-10T08:51:23.345Z,21.63
2018-04-10T08:53:52.142Z,21.61
2018-04-10T08:56:20.922Z,21.04
2018-04-10T08:58:50.257Z,16.62
2018-04-10T09:01:19.202Z,17.56
2018-04-10T09:03:48.199Z,17.49
2018-04-10T09:06:17.535Z,17.14
2018-04-10T09:08:47.067Z,17.18
2018-04-10T09:11:16.534Z,17.62
2018-04-10T09:13:46.081Z,17.81
2018-04-10T09:16:15.091Z,18.06
2018-04-10T09:18:45.504Z,17.28
2018-04-10T09:21:14.427Z,16.98
2018-04-10T09:23:44.017Z,17.14
2018-04-10T09:26:12.824Z,16.86
2018-04-10T09:28:41.631Z,16.78
2018-04-10T09:31:10.229Z,16.72
2018-04-10T09:33:40.450Z,17.78
2018-04-10T09:36:10.048Z,18.62
2018-04-10T09:38:40.133Z,18.15
2018-04-10T09:41:08.952Z,17.97
2018-04-10T09:43:37.677Z,17.35
2018-04-10T09:46:06.688Z,18.01
2018-04-10T09:48:35.489Z,18.10
2018-04-10T09:51:04.335Z,17.95
2018-04-10T09:53:33.008Z,17.27
2018-04-10T09:56:01.820Z,17.02
2018-04-10T09:58:30.619Z,16.80
2018-04-10T10:00:59.404Z,16.74
2018-04-10T10:03:30.059Z,16.65
2018-04-10T10:05:59.255Z,16.35
2018-04-10T10:08:28.005Z,16.27
2018-04-10T10:10:57.441Z,16.48
2018-04-10T10:13:26.339Z,16.66
2018-04-10T10:15:55.265Z,16.83
2018-04-10T10:18:25.089Z,17.01
2018-04-10T10:20:54.007Z,16.80
2018-04-10T10:23:22.823Z,18.12
2018-04-10T10:25:51.511Z,18.53
2018-04-10T10:28:20.228Z,18.85
2018-04-10T10:30:48.980Z,19.44
2018-04-10T10:33:18.484Z,21.20
2018-04-10T10:35:48.451Z,19.68
2018-04-10T10:38:17.256Z,21.38
2018-04-10T10:40:46.472Z,21.18
2018-04-10T10:43:15.507Z,20.17
2018-04-10T10:45:45.384Z,21.47
2018-04-10T10:48:14.128Z,21.48
2018-04-10T10:50:42.947Z,21.96
2018-04-10T10:53:11.688Z,21.56
2018-04-10T10:55:41.200Z,21.86
2018-04-10T10:58:10.666Z,21.22
2018-04-10T11:00:39.507Z,18.51
2018-04-10T11:03:08.965Z,17.66
2018-04-10T11:05:39.035Z,18.34
2018-04-10T11:08:07.889Z,18.64
2018-04-10T11:10:36.680Z,19.78
2018-04-10T11:13:05.250Z,19.69
2018-04-10T11:15:33.984Z,19.87
2018-04-10T11:18:02.660Z,19.00
2018-04-10T11:20:31.384Z,18.48
2018-04-10T11:23:00.106Z,19.06
2018-04-10T11:25:28.909Z,18.58
2018-04-10T11:27:57.829Z,19.02
2018-04-10T11:30:26.614Z,18.86
2018-04-10T11:32:56.214Z,19.26
2018-04-10T11:35:25.723Z,18.73
2018-04-10T11:37:55.136Z,18.84
2018-04-10T11:40:24.018Z,19.19
2018-04-10T11:42:52.931Z,18.65
2018-04-10T11:45:22.051Z,19.01
2018-04-10T11:47:50.851Z,18.80
2018-04-10T11:50:20.004Z,19.28
2018-04-10T11:52:48.839Z,18.77
2018-04-10T11:55:18.411Z,18.31
2018-04-10T11:57:47.117Z,18.32
2018-04-10T12:00:16.025Z,18.31
2018-04-10T12:02:45.334Z,19.23
2018-04-10T12:05:14.626Z,18.65
2018-04-10T12:07:44.812Z,18.95
2018-04-10T12:10:13.746Z,19.24
2018-04-10T12:12:42.960Z,19.40
2018-04-10T12:15:11.896Z,19.68
2018-04-10T12:17:40.712Z,19.63
2018-04-10T12:20:09.687Z,19.40
2018-04-10T12:22:38.708Z,19.46
2018-04-10T12:25:07.458Z,19.24
2018-04-10T12:27:36.213Z,18.99
2018-04-10T12:30:05.747Z,18.39
2018-04-10T12:32:34.572Z,18.38
2018-04-10T12:35:04.222Z,18.02
2018-04-10T12:37:33.841Z,19.18
2018-04-10T12:40:02.724Z,18.41
2018-04-10T12:42:31.416Z,19.44
2018-04-10T12:45:00.234Z,20.47
2018-04-10T12:47:29.242Z,19.65
2018-04-10T12:49:57.943Z,20.50
2018-04-10T12:52:27.518Z,18.69
2018-04-10T12:54:56.217Z,19.23
2018-04-10T12:57:25.213Z,18.71
2018-04-10T12:59:53.881Z,18.91
2018-04-10T13:02:23.874Z,18.59
2018-04-10T13:04:53.407Z,18.44
2018-04-10T13:07:23.561Z,18.19
2018-04-10T13:09:52.425Z,18.69
2018-04-10T13:12:21.140Z,18.79
2018-04-10T13:14:50.232Z,18.78
2018-04-10T13:17:21.269Z,19.08
2018-04-10T13:19:51.267Z,19.23
2018-04-10T13:22:20.368Z,19.99
2018-04-10T13:24:49.277Z,19.38
2018-04-10T13:27:18.712Z,19.24
2018-04-10T13:29:47.533Z,18.69
2018-04-10T13:32:17.141Z,18.76
2018-04-10T13:34:46.843Z,19.25
2018-04-10T13:37:16.344Z,18.94
2018-04-10T13:39:45.914Z,19.50
2018-04-10T13:42:15.105Z,19.19
2018-04-10T13:44:44.768Z,18.68
2018-04-10T13:47:13.453Z,18.45
2018-04-10T13:49:42.258Z,18.35
2018-04-10T13:52:11.050Z,17.94
2018-04-10T13:54:39.918Z,17.68
2018-04-10T13:57:08.570Z,17.88
2018-04-10T13:59:38.145Z,18.25
2018-04-10T14:02:09.340Z,18.02
2018-04-10T14:04:38.697Z,18.21
2018-04-10T14:07:08.575Z,19.05
2018-04-10T14:09:37.357Z,18.61
2018-04-10T14:12:06.434Z,18.18
2018-04-10T14:14:35.399Z,18.45
2018-04-10T14:17:04.431Z,18.82
2018-04-10T14:19:33.263Z,18.96
2018-04-10T14:22:02.735Z,18.58
2018-04-10T14:24:31.888Z,18.40
2018-04-10T14:27:00.795Z,18.08
2018-04-10T14:29:29.557Z,18.43
2018-04-10T14:31:59.894Z,18.39
2018-04-10T14:34:29.981Z,17.74
2018-04-10T14:36:59.270Z,17.66
2018-04-10T14:39:28.539Z,17.27
2018-04-10T14:41:57.770Z,17.38
2018-04-10T14:44:27.266Z,16.98
2018-04-10T14:46:56.472Z,17.25
2018-04-10T14:49:25.673Z,17.29
2018-04-10T14:51:54.485Z,17.28
2018-04-10T14:54:24.234Z,17.17
2018-04-10T14:56:53.174Z,16.98
2018-04-10T14:59:22.611Z,16.94
2018-04-10T15:01:53.029Z,17.04
2018-04-10T15:04:23.718Z,16.77
2018-04-10T15:06:53.292Z,16.50
2018-04-10T15:09:22.774Z,16.47
2018-04-10T15:11:52.231Z,16.66
2018-04-10T15:14:21.706Z,16.56
2018-04-10T15:16:51.183Z,16.38
2018-04-10T15:19:20.215Z,16.12
2018-04-10T15:21:49.682Z,16.15
2018-04-10T15:24:19.644Z,16.15
2018-04-10T15:26:51.024Z,16.19
2018-04-10T15:29:20.507Z,16.25
2018-04-10T15:31:50.040Z,16.33
2018-04-10T15:34:20.278Z,16.07
2018-04-10T15:36:49.915Z,16.09
2018-04-10T15:39:19.492Z,16.06
2018-04-10T15:41:48.950Z,16.09
2018-04-10T15:44:20.261Z,16.01
2018-04-10T15:46:49.589Z,15.97
2018-04-10T15:49:20.011Z,15.79
2018-04-10T15:51:50.034Z,15.76
2018-04-10T15:54:19.394Z,15.89
2018-04-10T15:56:49.364Z,15.82
2018-04-10T15:59:18.585Z,15.68
2018-04-10T16:01:48.028Z,15.57
2018-04-10T16:04:17.551Z,15.53
2018-04-10T16:06:48.107Z,15.45
2018-04-10T16:09:18.376Z,15.39
2018-04-10T16:11:47.908Z,15.37
2018-04-10T16:14:18.339Z,15.39
2018-04-10T16:16:48.669Z,15.40
2018-04-10T16:19:19.668Z,15.30
2018-04-10T16:21:49.761Z,15.28
2018-04-10T16:24:19.313Z,15.25
2018-04-10T16:26:50.652Z,15.27
2018-04-10T16:29:20.019Z,15.24
2018-04-10T16:31:50.259Z,15.26
2018-04-10T16:34:19.631Z,15.10
2018-04-10T16:36:49.207Z,15.12
2018-04-10T16:39:19.810Z,15.00
2018-04-10T16:41:52.110Z,15.05
2018-04-10T16:44:21.996Z,15.03
2018-04-10T16:46:52.364Z,15.05
2018-04-10T16:49:25.564Z,15.01
2018-04-10T16:51:54.840Z,14.94
2018-04-10T16:54:24.276Z,14.95
2018-04-10T16:56:54.830Z,14.96
2018-04-10T16:59:26.206Z,14.82
2018-04-10T17:01:55.585Z,14.95
2018-04-10T17:04:25.942Z,14.96
2018-04-10T17:06:56.575Z,14.95
2018-04-10T17:09:26.618Z,14.76
2018-04-10T17:11:57.700Z,14.75
2018-04-10T17:14:28.928Z,14.82
2018-04-10T17:17:02.203Z,14.77
2018-04-10T17:19:33.286Z,14.74
2018-04-10T17:22:04.120Z,14.84
2018-04-10T17:24:33.887Z,14.73
2018-04-10T17:27:03.409Z,14.62
2018-04-10T17:29:33.692Z,14.67
2018-04-10T17:32:03.871Z,14.64
2018-04-10T17:34:33.627Z,14.53
2018-04-10T17:37:02.945Z,14.40
2018-04-10T17:39:32.915Z,14.41
2018-04-10T17:42:03.771Z,14.36
2018-04-10T17:44:34.565Z,14.40
2018-04-10T17:47:04.121Z,14.40
2018-04-10T17:49:34.157Z,14.30
2018-04-10T17:52:04.353Z,14.20
2018-04-10T17:54:33.849Z,14.11
2018-04-10T17:57:03.620Z,14.13
2018-04-10T17:59:33.491Z,14.15
2018-04-10T18:02:03.127Z,14.08
2018-04-10T18:04:33.020Z,14.09
2018-04-10T18:07:02.730Z,14.10
2018-04-10T18:09:32.210Z,14.15
2018-04-10T18:12:01.543Z,14.17
2018-04-10T18:14:32.019Z,14.17
2018-04-10T18:17:03.209Z,14.20
2018-04-10T18:19:33.532Z,14.22
2018-04-10T18:22:03.112Z,14.20
2018-04-10T18:24:32.888Z,14.13
2018-04-10T18:27:02.703Z,14.08
2018-04-10T18:29:34.274Z,14.05
2018-04-10T18:32:05.743Z,13.98
2018-04-10T18:34:35.848Z,13.94
2018-04-10T18:37:06.062Z,13.88
2018-04-10T18:39:36.075Z,13.87
2018-04-10T18:42:06.155Z,13.83
2018-04-10T18:44:35.753Z,13.81
2018-04-10T18:47:05.243Z,13.77
2018-04-10T18:49:35.537Z,13.73
2018-04-10T18:52:06.929Z,13.75
2018-04-10T18:54:36.461Z,13.72
2018-04-10T18:57:06.562Z,13.71
2018-04-10T18:59:37.670Z,13.64
2018-04-10T19:02:09.076Z,13.57
2018-04-10T19:04:39.783Z,13.47
2018-04-10T19:07:10.225Z,13.40
2018-04-10T19:09:40.945Z,13.30
2018-04-10T19:12:11.573Z,13.27
2018-04-10T19:14:41.323Z,13.20
2018-04-10T19:17:11.903Z,13.18
2018-04-10T19:19:44.054Z,13.19
2018-04-10T19:22:13.974Z,13.19
2018-04-10T19:24:43.368Z,13.14
2018-04-10T19:27:13.534Z,13.04
2018-04-10T19:29:43.948Z,12.93
2018-04-10T19:32:14.651Z,12.83
2018-04-10T19:34:45.557Z,12.74
2018-04-10T19:37:15.870Z,12.65
2018-04-10T19:39:45.763Z,12.62
2018-04-10T19:42:16.267Z,12.50
2018-04-10T19:44:45.647Z,12.41
2018-04-10T19:47:15.424Z,12.37
2018-04-10T19:49:44.948Z,12.27
2018-04-10T19:52:14.206Z,12.19
2018-04-10T19:54:44.537Z,12.09
2018-04-10T19:57:14.963Z,12.03
2018-04-10T19:59:45.956Z,11.99
2018-04-10T20:02:19.452Z,11.98
2018-04-10T20:04:49.363Z,11.87
2018-04-10T20:07:19.787Z,11.75
2018-04-10T20:09:49.322Z,11.72
2018-04-10T20:12:18.894Z,11.70
2018-04-10T20:14:49.244Z,11.68
2018-04-10T20:17:19.231Z,11.64
2018-04-10T20:19:49.267Z,11.61
2018-04-10T20:22:19.754Z,11.52
2018-04-10T20:24:50.180Z,11.53
2018-04-10T20:27:19.599Z,11.47
2018-04-10T20:29:50.863Z,11.39
2018-04-10T20:32:20.294Z,11.36
2018-04-10T20:34:49.883Z,11.31
2018-04-10T20:37:19.449Z,11.26
2018-04-10T20:39:49.852Z,11.22
2018-04-10T20:42:20.363Z,11.13
2018-04-10T20:44:51.351Z,11.05
2018-04-10T20:47:21.779Z,10.99
2018-04-10T20:49:51.448Z,10.95
2018-04-10T20:52:21.120Z,10.95
2018-04-10T20:54:50.652Z,10.96
2018-04-10T20:57:20.231Z,10.98
2018-04-10T20:59:49.735Z,11.00
2018-04-10T21:02:19.722Z,11.01
2018-04-10T21:04:50.360Z,11.01
2018-04-10T21:07:19.593Z,10.99
2018-04-10T21:09:48.940Z,10.96
2018-04-10T21:12:18.442Z,10.97
2018-04-10T21:14:48.015Z,11.00
2018-04-10T21:17:17.460Z,11.01
2018-04-10T21:19:46.551Z,10.99
2018-04-10T21:22:15.808Z,10.95
2018-04-10T21:24:46.028Z,10.91
2018-04-10T21:27:15.689Z,10.88
2018-04-10T21:29:45.715Z,10.89
2018-04-10T21:32:15.728Z,10.86
2018-04-10T21:34:45.848Z,10.84
2018-04-10T21:37:15.288Z,10.86
2018-04-10T21:39:45.663Z,10.78
2018-04-10T21:42:14.816Z,10.75
2018-04-10T21:44:44.667Z,10.72
2018-04-10T21:47:13.505Z,10.67
2018-04-10T21:49:42.420Z,10.65
2018-04-10T21:52:11.435Z,10.65
2018-04-10T21:54:40.350Z,10.67
2018-04-10T21:57:10.446Z,10.60
2018-04-10T21:59:39.624Z,10.53
2018-04-10T22:02:08.332Z,10.50
2018-04-10T22:04:38.180Z,10.49
2018-04-10T22:07:06.948Z,10.50
2018-04-10T22:09:35.959Z,10.49
2018-04-10T22:12:04.669Z,10.53
2018-04-10T22:14:33.378Z,10.57
2018-04-10T22:17:02.400Z,10.60
2018-04-10T22:19:32.825Z,10.57
2018-04-10T22:22:01.441Z,10.59
2018-04-10T22:24:30.794Z,10.65
2018-04-10T22:27:00.449Z,10.61
2018-04-10T22:29:29.823Z,10.58
2018-04-10T22:31:59.044Z,10.56
2018-04-10T22:34:29.132Z,10.55
2018-04-10T22:36:58.075Z,10.50
2018-04-10T22:39:26.988Z,10.44
2018-04-10T22:41:55.996Z,10.37
2018-04-10T22:44:25.003Z,10.35
2018-04-10T22:46:53.812Z,10.32
2018-04-10T22:49:23.080Z,10.31
2018-04-10T22:51:51.846Z,10.30
2018-04-10T22:54:28.005Z,10.31
2018-04-10T22:56:56.722Z,10.20
2018-04-10T22:59:25.499Z,10.11
2018-04-10T23:01:54.343Z,10.04
2018-04-10T23:04:23.107Z,9.99
2018-04-10T23:06:52.463Z,9.94
2018-04-10T23:09:21.094Z,9.85
2018-04-10T23:11:50.122Z,9.82
2018-04-10T23:14:19.384Z,9.99
2018-04-10T23:16:48.146Z,10.07
2018-04-10T23:19:17.229Z,10.11
2018-04-10T23:21:47.251Z,10.10
2018-04-10T23:24:16.110Z,10.09
2018-04-10T23:26:44.935Z,10.10
2018-04-10T23:29:13.724Z,10.06
2018-04-10T23:31:42.543Z,10.01
2018-04-10T23:34:11.160Z,10.00
2018-04-10T23:36:40.077Z,10.03
2018-04-10T23:39:08.892Z,10.09
2018-04-10T23:41:37.579Z,10.15
2018-04-10T23:44:06.417Z,10.13
2018-04-10T23:46:35.201Z,10.14
2018-04-10T23:49:03.835Z,10.09
2018-04-10T23:51:33.426Z,10.02
2018-04-10T23:54:03.287Z,9.91
2018-04-10T23:56:32.093Z,9.80
2018-04-10T23:59:00.899Z,9.69
